createdAt,value
2022-09-24T00:01:48.361Z,31.23
2022-09-24T00:04:50.527Z,33.97
2022-09-24T00:07:52.440Z,36.60
2022-09-24T00:10:57.189Z,37.87
2022-09-24T00:13:59.802Z,34.73
2022-09-24T00:17:01.895Z,33.93
2022-09-24T00:20:04.155Z,37.37
2022-09-24T00:23:08.072Z,32.30
2022-09-24T00:26:30.904Z,34.73
2022-09-24T00:29:34.272Z,37.00
2022-09-24T00:32:36.341Z,36.83
2022-09-24T00:35:41.414Z,37.77
2022-09-24T00:38:43.365Z,38.00
2022-09-24T00:41:48.098Z,42.70
2022-09-24T00:44:56.172Z,40.23
2022-09-24T00:47:59.395Z,36.23
2022-09-24T00:51:04.489Z,34.90
2022-09-24T00:54:12.729Z,33.77
2022-09-24T00:57:14.895Z,34.60
2022-09-24T01:00:17.120Z,31.43
2022-09-24T01:03:25.468Z,32.77
2022-09-24T01:06:27.865Z,31.77
2022-09-24T01:09:30.420Z,29.87
2022-09-24T01:12:57.385Z,36.37
2022-09-24T01:16:14.191Z,40.20
2022-09-24T01:19:40.637Z,37.40
2022-09-24T01:23:00.430Z,34.27
2022-09-24T01:26:23.747Z,37.87
2022-09-24T01:29:43.447Z,33.70
2022-09-24T01:32:54.085Z,29.93
2022-09-24T01:36:01.407Z,31.23
2022-09-24T01:39:06.710Z,28.73
2022-09-24T01:42:11.091Z,29.37
2022-09-24T01:45:15.157Z,28.13
2022-09-24T01:48:21.204Z,28.33
2022-09-24T01:51:52.259Z,29.03
2022-09-24T01:54:57.378Z,29.17
2022-09-24T01:58:09.029Z,28.20
2022-09-24T02:01:15.346Z,26.97
2022-09-24T02:04:21.601Z,25.03
2022-09-24T02:07:33.496Z,26.00
2022-09-24T02:10:55.871Z,20.20
2022-09-24T02:14:03.221Z,24.27
2022-09-24T02:17:07.296Z,28.23
2022-09-24T02:20:14.746Z,25.97
2022-09-24T02:23:18.888Z,22.97
2022-09-24T02:26:20.808Z,26.20
2022-09-24T02:29:23.243Z,26.03
2022-09-24T02:32:34.042Z,24.23
2022-09-24T02:35:39.292Z,23.80
2022-09-24T02:38:42.418Z,23.53
2022-09-24T02:41:49.436Z,26.43
2022-09-24T02:44:52.489Z,25.47
2022-09-24T02:47:54.598Z,22.13
2022-09-24T02:50:56.456Z,22.13
2022-09-24T02:53:58.661Z,23.57
2022-09-24T02:57:00.577Z,22.20
2022-09-24T03:00:02.833Z,22.53
2022-09-24T03:03:04.864Z,24.20
2022-09-24T03:06:07.222Z,38.70
2022-09-24T03:09:11.699Z,28.90
2022-09-24T03:12:14.083Z,20.77
2022-09-24T03:15:16.186Z,26.43
2022-09-24T03:18:18.373Z,23.63
2022-09-24T03:21:22.165Z,22.90
2022-09-24T03:24:24.294Z,19.57
2022-09-24T03:27:26.187Z,21.13
2022-09-24T03:30:46.802Z,23.37
2022-09-24T03:33:49.942Z,20.77
2022-09-24T03:36:52.061Z,23.43
2022-09-24T03:39:53.934Z,27.00
2022-09-24T03:42:56.026Z,22.07
2022-09-24T03:45:58.283Z,23.97
2022-09-24T03:49:00.672Z,24.03
2022-09-24T03:52:02.713Z,22.47
2022-09-24T03:55:05.459Z,24.07
2022-09-24T03:58:07.351Z,23.67
2022-09-24T04:01:13.042Z,24.30
2022-09-24T04:04:16.296Z,21.03
2022-09-24T04:07:18.808Z,23.10
2022-09-24T04:10:20.659Z,22.33
2022-09-24T04:13:22.973Z,21.23
2022-09-24T04:16:25.185Z,21.97
2022-09-24T04:19:27.256Z,19.30
2022-09-24T04:22:29.179Z,22.33
2022-09-24T04:25:32.725Z,20.20
2022-09-24T04:28:35.350Z,24.03
2022-09-24T04:31:38.625Z,22.10
2022-09-24T04:34:40.561Z,20.70
2022-09-24T04:37:43.226Z,26.60
2022-09-24T04:40:46.550Z,21.27
2022-09-24T04:43:48.707Z,19.73
2022-09-24T04:46:50.662Z,22.70
2022-09-24T04:49:52.849Z,21.40
2022-09-24T04:52:55.802Z,21.63
2022-09-24T04:55:58.105Z,22.17
2022-09-24T04:59:00.058Z,20.77
2022-09-24T05:02:08.655Z,26.70
2022-09-24T05:05:13.252Z,21.80
2022-09-24T05:08:15.434Z,25.60
2022-09-24T05:11:19.412Z,25.23
2022-09-24T05:14:21.838Z,21.87
2022-09-24T05:17:23.937Z,25.33
2022-09-24T05:20:26.596Z,27.43
2022-09-24T05:23:28.578Z,24.20
2022-09-24T05:26:49.531Z,25.33
2022-09-24T05:29:51.434Z,23.73
2022-09-24T05:32:53.575Z,24.83
2022-09-24T05:35:57.988Z,23.60
2022-09-24T05:39:00.176Z,23.20
2022-09-24T05:42:04.279Z,22.17
2022-09-24T05:45:06.617Z,23.03
2022-09-24T05:48:08.587Z,25.23
2022-09-24T05:51:10.684Z,21.27
2022-09-24T05:54:12.625Z,21.67
2022-09-24T05:57:15.694Z,21.90
2022-09-24T06:00:17.628Z,23.43
2022-09-24T06:03:20.944Z,20.73
2022-09-24T06:06:24.039Z,20.97
2022-09-24T06:09:26.226Z,18.17
2022-09-24T06:12:28.380Z,20.00
2022-09-24T06:15:30.997Z,18.03
2022-09-24T06:18:38.126Z,18.27
2022-09-24T06:21:40.240Z,20.50
2022-09-24T06:24:42.141Z,18.87
2022-09-24T06:27:44.404Z,19.73
2022-09-24T06:30:46.401Z,18.70
2022-09-24T06:33:48.450Z,21.52
2022-09-24T06:36:54.190Z,18.38
2022-09-24T06:39:56.270Z,20.67
2022-09-24T06:42:58.315Z,20.97
2022-09-24T06:46:01.202Z,20.47
2022-09-24T06:49:04.955Z,17.10
2022-09-24T06:52:07.366Z,19.40
2022-09-24T06:55:09.541Z,23.88
2022-09-24T06:58:20.861Z,18.48
2022-09-24T07:01:22.977Z,22.25
2022-09-24T07:04:25.171Z,21.75
2022-09-24T07:07:29.830Z,18.65
2022-09-24T07:10:32.217Z,16.10
2022-09-24T07:13:34.150Z,16.13
2022-09-24T07:16:36.355Z,14.20
2022-09-24T07:19:38.557Z,15.70
2022-09-24T07:22:41.646Z,15.15
2022-09-24T07:25:43.632Z,15.15
2022-09-24T07:28:45.780Z,13.10
2022-09-24T07:31:47.781Z,14.65
2022-09-24T07:34:50.054Z,16.77
2022-09-24T07:38:04.246Z,14.90
2022-09-24T07:41:08.125Z,13.18
2022-09-24T07:44:10.235Z,15.93
2022-09-24T07:47:15.499Z,13.10
2022-09-24T07:50:18.269Z,13.32
2022-09-24T07:53:21.929Z,13.00
2022-09-24T07:56:24.790Z,14.48
2022-09-24T07:59:27.187Z,13.60
2022-09-24T08:02:29.530Z,12.82
2022-09-24T08:05:33.112Z,13.57
2022-09-24T08:08:35.329Z,16.65
2022-09-24T08:11:37.736Z,17.75
2022-09-24T08:14:39.606Z,14.88
2022-09-24T08:17:42.365Z,15.45
2022-09-24T08:20:44.221Z,15.88
2022-09-24T08:23:46.421Z,13.80
2022-09-24T08:26:48.426Z,16.25
2022-09-24T08:29:51.210Z,13.57
2022-09-24T08:32:53.138Z,15.40
2022-09-24T08:35:55.288Z,13.55
2022-09-24T08:38:57.433Z,14.90
2022-09-24T08:42:03.064Z,11.52
2022-09-24T08:45:24.648Z,13.82
2022-09-24T08:48:31.677Z,11.68
2022-09-24T08:51:47.685Z,13.20
2022-09-24T08:54:53.296Z,12.02
2022-09-24T08:58:32.034Z,16.73
2022-09-24T09:01:42.054Z,12.07
2022-09-24T09:05:09.555Z,12.80
2022-09-24T09:08:50.015Z,12.02
2022-09-24T09:11:58.058Z,12.70
2022-09-24T09:15:14.526Z,10.93
2022-09-24T09:18:50.841Z,14.95
2022-09-24T09:21:59.931Z,12.48
2022-09-24T09:25:19.845Z,11.13
2022-09-24T09:28:22.113Z,15.00
2022-09-24T09:31:34.569Z,12.40
2022-09-24T09:34:55.868Z,13.20
2022-09-24T09:38:12.077Z,12.40
2022-09-24T09:41:34.390Z,18.52
2022-09-24T09:44:41.991Z,13.98
2022-09-24T09:48:04.240Z,12.88
2022-09-24T09:51:06.765Z,11.98
2022-09-24T09:54:09.318Z,14.13
2022-09-24T09:57:23.949Z,10.93
2022-09-24T10:00:36.556Z,12.23
2022-09-24T10:03:52.130Z,11.35
2022-09-24T10:07:06.554Z,12.68
2022-09-24T10:10:24.299Z,10.68
2022-09-24T10:13:27.719Z,13.65
2022-09-24T10:16:29.904Z,12.60
2022-09-24T10:19:36.052Z,10.90
2022-09-24T10:22:39.032Z,12.27
2022-09-24T10:25:41.116Z,11.02
2022-09-24T10:29:07.287Z,8.98
2022-09-24T10:32:19.444Z,15.63
2022-09-24T10:35:35.849Z,10.27
2022-09-24T10:38:38.081Z,8.85
2022-09-24T10:41:48.225Z,10.77
2022-09-24T10:44:52.851Z,12.30
2022-09-24T10:48:15.579Z,8.32
2022-09-24T10:52:09.693Z,9.98
2022-09-24T10:55:36.106Z,9.48
2022-09-24T10:59:07.678Z,6.28
2022-09-24T11:02:29.208Z,6.90
2022-09-24T11:05:57.158Z,3.65
2022-09-24T11:09:23.475Z,6.70
2022-09-24T11:12:35.325Z,7.20
2022-09-24T11:16:10.755Z,9.85
2022-09-24T11:19:41.976Z,4.97
2022-09-24T11:22:52.910Z,5.93
2022-09-24T11:26:18.608Z,5.10
2022-09-24T11:29:44.489Z,5.10
2022-09-24T11:33:04.682Z,4.70
2022-09-24T11:36:31.271Z,5.43
2022-09-24T11:39:52.041Z,3.30
2022-09-24T11:43:12.028Z,6.10
2022-09-24T11:46:30.385Z,3.92
2022-09-24T11:49:53.989Z,6.82
2022-09-24T11:53:17.356Z,4.35
2022-09-24T11:56:33.943Z,6.40
2022-09-24T11:59:42.710Z,3.60
2022-09-24T12:02:54.567Z,4.30
2022-09-24T12:06:07.158Z,3.53
2022-09-24T12:09:26.965Z,5.13
2022-09-24T12:12:37.949Z,4.13
2022-09-24T12:15:47.733Z,6.18
2022-09-24T12:19:02.835Z,12.25
2022-09-24T12:22:06.624Z,6.47
2022-09-24T12:25:12.705Z,3.53
2022-09-24T12:28:38.088Z,10.23
2022-09-24T12:32:13.616Z,5.65
2022-09-24T12:35:24.491Z,6.13
2022-09-24T12:38:47.439Z,4.53
2022-09-24T12:42:03.143Z,4.00
2022-09-24T12:45:11.604Z,5.30
2022-09-24T12:48:16.226Z,4.97
2022-09-24T12:51:22.572Z,7.57
2022-09-24T12:54:37.993Z,4.65
2022-09-24T12:57:42.508Z,4.45
2022-09-24T13:00:47.680Z,4.38
2022-09-24T13:04:04.207Z,5.70
2022-09-24T13:07:28.881Z,5.45
2022-09-24T13:10:39.750Z,5.40
2022-09-24T13:13:44.202Z,11.63
2022-09-24T13:16:49.572Z,6.03
2022-09-24T13:19:58.996Z,6.28
2022-09-24T13:23:19.781Z,7.18
2022-09-24T13:26:24.967Z,7.10
2022-09-24T13:29:37.090Z,9.32
2022-09-24T13:33:17.540Z,5.70
2022-09-24T13:36:34.150Z,6.50
2022-09-24T13:39:59.813Z,5.50
2022-09-24T13:43:09.224Z,5.50
2022-09-24T13:46:17.864Z,6.28
2022-09-24T13:49:23.274Z,5.80
2022-09-24T13:52:45.991Z,7.55
2022-09-24T13:55:53.312Z,6.40
2022-09-24T13:59:06.278Z,6.68
2022-09-24T14:02:26.424Z,5.25
2022-09-24T14:05:31.323Z,5.80
2022-09-24T14:08:33.434Z,5.20
2022-09-24T14:11:36.409Z,5.85
2022-09-24T14:14:45.657Z,5.18
2022-09-24T14:17:59.881Z,6.00
2022-09-24T14:21:07.483Z,5.68
2022-09-24T14:24:24.798Z,5.82
2022-09-24T14:27:28.366Z,6.28
2022-09-24T14:30:33.647Z,5.60
2022-09-24T14:33:38.605Z,6.38
2022-09-24T14:36:40.577Z,5.60
2022-09-24T14:39:44.640Z,6.50
2022-09-24T14:42:49.438Z,6.68
2022-09-24T14:45:52.406Z,5.78
2022-09-24T14:49:06.610Z,5.10
2022-09-24T14:52:24.916Z,5.57
2022-09-24T14:55:42.112Z,4.82
2022-09-24T14:58:44.237Z,5.53
2022-09-24T15:01:46.340Z,6.20
2022-09-24T15:04:52.017Z,5.72
2022-09-24T15:08:19.250Z,5.95
2022-09-24T15:11:27.727Z,5.05
2022-09-24T15:14:32.941Z,5.25
2022-09-24T15:17:36.219Z,6.10
2022-09-24T15:20:38.653Z,6.28
2022-09-24T15:23:40.741Z,6.93
2022-09-24T15:26:45.633Z,5.53
2022-09-24T15:29:47.957Z,5.30
2022-09-24T15:32:52.846Z,6.28
2022-09-24T15:35:55.039Z,7.82
2022-09-24T15:39:02.271Z,5.07
2022-09-24T15:42:04.473Z,5.57
2022-09-24T15:45:19.337Z,5.05
2022-09-24T15:48:22.528Z,5.03
2022-09-24T15:51:24.598Z,4.72
2022-09-24T15:54:26.736Z,5.20
2022-09-24T15:57:28.722Z,5.60
2022-09-24T16:00:30.965Z,15.65
2022-09-24T16:03:32.967Z,16.33
2022-09-24T16:06:36.659Z,11.65
2022-09-24T16:09:39.520Z,17.20
2022-09-24T16:12:42.682Z,15.05
2022-09-24T16:15:45.481Z,19.38
2022-09-24T16:18:47.950Z,13.10
2022-09-24T16:21:52.030Z,12.00
2022-09-24T16:24:54.365Z,21.20
2022-09-24T16:28:00.886Z,9.75
2022-09-24T16:31:07.428Z,10.85
2022-09-24T16:34:11.065Z,9.50
2022-09-24T16:37:14.605Z,9.57
2022-09-24T16:40:16.650Z,10.07
2022-09-24T16:43:18.755Z,15.43
2022-09-24T16:46:21.682Z,26.40
2022-09-24T16:49:25.070Z,22.65
2022-09-24T16:52:30.202Z,21.10
2022-09-24T16:55:33.029Z,32.28
2022-09-24T16:58:35.414Z,30.63
2022-09-24T17:01:39.380Z,26.05
2022-09-24T17:04:41.703Z,24.27
2022-09-24T17:07:43.861Z,22.33
2022-09-24T17:10:55.915Z,18.95
2022-09-24T17:14:00.982Z,19.92
2022-09-24T17:17:02.912Z,22.13
2022-09-24T17:20:05.435Z,16.02
2022-09-24T17:23:07.344Z,18.77
2022-09-24T17:26:12.437Z,24.03
2022-09-24T17:29:14.402Z,12.63
2022-09-24T17:32:16.476Z,18.23
2022-09-24T17:35:18.780Z,16.70
2022-09-24T17:38:21.826Z,21.50
2022-09-24T17:41:24.230Z,18.67
2022-09-24T17:44:26.365Z,22.00
2022-09-24T17:47:48.203Z,18.23
2022-09-24T17:50:57.580Z,20.33
2022-09-24T17:54:01.823Z,15.70
2022-09-24T17:57:04.048Z,20.80
2022-09-24T18:00:06.682Z,19.55
2022-09-24T18:03:08.937Z,15.40
2022-09-24T18:06:13.671Z,27.63
2022-09-24T18:09:17.253Z,16.50
2022-09-24T18:12:19.246Z,16.92
2022-09-24T18:15:21.757Z,19.15
2022-09-24T18:18:23.768Z,15.57
2022-09-24T18:21:27.261Z,19.33
2022-09-24T18:24:29.202Z,19.70
2022-09-24T18:27:31.815Z,13.73
2022-09-24T18:30:33.889Z,15.70
2022-09-24T18:33:38.885Z,22.13
2022-09-24T18:36:42.704Z,28.20
2022-09-24T18:39:44.784Z,45.10
2022-09-24T18:42:46.699Z,37.90
2022-09-24T18:45:48.927Z,36.70
2022-09-24T18:48:52.836Z,28.47
2022-09-24T18:51:54.911Z,22.87
2022-09-24T18:54:57.678Z,23.40
2022-09-24T18:57:59.771Z,21.83
2022-09-24T19:01:03.861Z,20.10
2022-09-24T19:04:08.918Z,17.33
2022-09-24T19:07:11.273Z,21.87
2022-09-24T19:10:13.431Z,27.10
2022-09-24T19:13:16.309Z,23.97
2022-09-24T19:16:20.226Z,20.13
2022-09-24T19:19:26.936Z,18.33
2022-09-24T19:22:29.154Z,21.97
2022-09-24T19:25:33.463Z,30.30
2022-09-24T19:28:36.512Z,31.17
2022-09-24T19:31:45.460Z,23.60
2022-09-24T19:34:48.610Z,20.43
2022-09-24T19:37:50.489Z,17.27
2022-09-24T19:41:01.171Z,18.37
2022-09-24T19:44:08.556Z,18.40
2022-09-24T19:47:11.159Z,29.93
2022-09-24T19:50:17.495Z,21.07
2022-09-24T19:53:20.393Z,24.47
2022-09-24T19:56:24.635Z,34.10
2022-09-24T19:59:30.988Z,47.00
2022-09-24T20:02:33.001Z,70.43
2022-09-24T20:05:36.830Z,75.80
2022-09-24T20:08:39.168Z,75.80
2022-09-24T20:11:41.301Z,79.37
2022-09-24T20:14:43.478Z,77.17
2022-09-24T20:17:45.704Z,73.00
2022-09-24T20:20:51.208Z,82.87
2022-09-24T20:23:56.851Z,86.33
2022-09-24T20:27:17.933Z,88.67
2022-09-24T20:30:21.574Z,89.17
2022-09-24T20:33:23.599Z,88.33
2022-09-24T20:36:25.835Z,96.97
2022-09-24T20:39:30.975Z,90.77
2022-09-24T20:42:38.360Z,80.80
2022-09-24T20:45:41.722Z,90.07
2022-09-24T20:48:45.426Z,79.47
2022-09-24T20:51:50.545Z,71.07
2022-09-24T20:54:55.664Z,67.03
2022-09-24T20:57:57.701Z,68.73
2022-09-24T21:01:01.603Z,65.60
2022-09-24T21:04:05.850Z,57.57
2022-09-24T21:07:08.093Z,56.77
2022-09-24T21:10:12.390Z,50.17
2022-09-24T21:13:14.477Z,56.00
2022-09-24T21:16:20.864Z,50.63
2022-09-24T21:19:23.139Z,45.20
2022-09-24T21:22:25.374Z,43.40
2022-09-24T21:25:52.901Z,45.03
2022-09-24T21:28:52.339Z,42.43
2022-09-24T21:31:54.506Z,38.37
2022-09-24T21:34:56.373Z,45.87
2022-09-24T21:37:58.452Z,38.97
2022-09-24T21:41:01.404Z,40.63
2022-09-24T21:44:11.863Z,38.00
2022-09-24T21:47:13.827Z,41.47
2022-09-24T21:50:15.950Z,38.20
2022-09-24T21:53:18.264Z,38.07
2022-09-24T21:56:21.226Z,37.67
2022-09-24T21:59:42.120Z,35.57
2022-09-24T22:02:45.163Z,31.37
2022-09-24T22:05:48.127Z,48.43
2022-09-24T22:08:51.259Z,42.53
2022-09-24T22:11:55.874Z,50.57
2022-09-24T22:14:58.072Z,44.37
2022-09-24T22:18:00.942Z,47.30
2022-09-24T22:21:09.694Z,40.37
2022-09-24T22:24:12.169Z,34.77
2022-09-24T22:27:15.112Z,41.07
2022-09-24T22:30:17.080Z,45.40
2022-09-24T22:33:38.680Z,53.83
2022-09-24T22:36:40.941Z,41.07
2022-09-24T22:39:43.008Z,48.95
2022-09-24T22:42:44.995Z,42.00
2022-09-24T22:45:47.120Z,41.87
2022-09-24T22:48:50.217Z,40.27
2022-09-24T22:51:52.467Z,37.43
2022-09-24T22:54:54.391Z,41.03
2022-09-24T22:57:56.680Z,41.20
2022-09-24T23:01:12.347Z,52.43
2022-09-24T23:04:15.331Z,59.80
2022-09-24T23:07:17.513Z,48.97
2022-09-24T23:10:19.807Z,47.83
2022-09-24T23:13:21.791Z,44.00
2022-09-24T23:16:26.856Z,40.17
2022-09-24T23:19:48.735Z,53.57
2022-09-24T23:22:50.920Z,70.73
2022-09-24T23:25:53.356Z,54.70
2022-09-24T23:28:56.805Z,72.67
2022-09-24T23:31:58.660Z,65.03
2022-09-24T23:35:01.923Z,55.63
2022-09-24T23:38:03.818Z,63.87
2022-09-24T23:41:08.569Z,65.93
2022-09-24T23:44:11.418Z,64.57
2022-09-24T23:47:13.816Z,55.00
2022-09-24T23:50:15.912Z,56.93
2022-09-24T23:53:19.164Z,59.43
2022-09-24T23:56:21.367Z,56.53
2022-09-24T23:59:23.603Z,60.73
